createdAt,value
2022-09-10T00:02:00.911Z,64.70
2022-09-10T00:04:32.118Z,64.70
2022-09-10T00:07:02.805Z,64.70
2022-09-10T00:09:32.981Z,64.70
2022-09-10T00:12:03.276Z,64.70
2022-09-10T00:14:33.803Z,64.60
2022-09-10T00:17:04.152Z,64.60
2022-09-10T00:19:34.378Z,64.40
2022-09-10T00:22:04.570Z,64.50
2022-09-10T00:24:36.195Z,64.30
2022-09-10T00:27:06.641Z,64.30
2022-09-10T00:29:36.971Z,64.30
2022-09-10T00:32:07.588Z,64.20
2022-09-10T00:34:37.922Z,64.20
2022-09-10T00:37:08.436Z,64.30
2022-09-10T00:39:38.835Z,64.20
2022-09-10T00:42:12.742Z,64.20
2022-09-10T00:44:42.897Z,64.10
2022-09-10T00:47:16.854Z,64.00
2022-09-10T00:50:15.343Z,64.10
2022-09-10T00:52:46.265Z,63.70
2022-09-10T00:55:18.445Z,63.90
2022-09-10T00:57:52.540Z,63.80
2022-09-10T01:00:23.005Z,64.50
2022-09-10T01:02:53.931Z,63.70
2022-09-10T01:05:24.355Z,63.60
2022-09-10T01:07:54.855Z,63.60
2022-09-10T01:10:34.427Z,63.40
2022-09-10T01:13:21.170Z,63.10
2022-09-10T01:16:06.171Z,63.10
2022-09-10T01:18:51.479Z,63.00
2022-09-10T01:21:21.587Z,63.10
2022-09-10T01:24:00.539Z,63.10
2022-09-10T01:26:51.540Z,62.90
2022-09-10T01:29:34.222Z,62.80
2022-09-10T01:32:16.356Z,62.60
2022-09-10T01:35:08.315Z,62.40
2022-09-10T01:37:41.851Z,62.00
2022-09-10T01:40:12.839Z,62.00
2022-09-10T01:42:43.519Z,62.00
2022-09-10T01:45:16.717Z,61.60
2022-09-10T01:48:18.029Z,61.50
2022-09-10T01:50:59.622Z,60.90
2022-09-10T01:53:49.477Z,61.30
2022-09-10T01:56:56.276Z,60.90
2022-09-10T01:59:49.200Z,60.90
2022-09-10T02:02:52.876Z,61.00
2022-09-10T02:05:25.807Z,59.80
2022-09-10T02:08:05.601Z,60.70
2022-09-10T02:10:35.904Z,60.60
2022-09-10T02:13:06.198Z,60.40
2022-09-10T02:15:37.002Z,60.40
2022-09-10T02:18:07.375Z,60.70
2022-09-10T02:20:37.705Z,61.00
2022-09-10T02:23:09.026Z,60.70
2022-09-10T02:25:39.403Z,60.50
2022-09-10T02:28:10.571Z,60.50
2022-09-10T02:30:40.877Z,60.50
2022-09-10T02:33:11.598Z,60.50
2022-09-10T02:35:41.823Z,60.20
2022-09-10T02:38:14.002Z,59.70
2022-09-10T02:40:44.938Z,59.20
2022-09-10T02:43:15.185Z,59.40
2022-09-10T02:45:46.292Z,59.20
2022-09-10T02:48:16.854Z,59.10
2022-09-10T02:50:47.996Z,59.00
2022-09-10T02:53:18.182Z,59.00
2022-09-10T02:55:49.474Z,59.00
2022-09-10T02:58:20.198Z,58.90
2022-09-10T03:00:50.470Z,58.90
2022-09-10T03:03:20.624Z,58.50
2022-09-10T03:05:51.280Z,58.40
2022-09-10T03:08:21.541Z,58.50
2022-09-10T03:10:51.631Z,58.40
2022-09-10T03:13:21.822Z,58.00
2022-09-10T03:15:51.891Z,58.10
2022-09-10T03:18:24.415Z,58.40
2022-09-10T03:20:54.674Z,58.80
2022-09-10T03:23:25.203Z,58.50
2022-09-10T03:25:56.261Z,58.50
2022-09-10T03:28:26.586Z,57.80
2022-09-10T03:30:58.308Z,57.80
2022-09-10T03:33:28.553Z,58.10
2022-09-10T03:35:58.974Z,57.80
2022-09-10T03:38:30.621Z,57.30
2022-09-10T03:41:03.590Z,56.50
2022-09-10T03:43:34.281Z,56.50
2022-09-10T03:46:04.611Z,56.10
2022-09-10T03:48:34.956Z,56.20
2022-09-10T03:51:05.170Z,55.90
2022-09-10T03:53:35.394Z,55.80
2022-09-10T03:56:05.704Z,55.60
2022-09-10T03:58:35.983Z,55.60
2022-09-10T04:01:07.073Z,55.30
2022-09-10T04:03:37.440Z,55.20
2022-09-10T04:06:11.253Z,55.40
2022-09-10T04:08:51.017Z,55.40
2022-09-10T04:11:21.523Z,55.50
2022-09-10T04:13:51.671Z,55.60
2022-09-10T04:16:22.944Z,55.30
2022-09-10T04:18:53.607Z,55.30
2022-09-10T04:21:24.794Z,55.10
2022-09-10T04:23:58.948Z,55.00
2022-09-10T04:26:29.291Z,55.10
2022-09-10T04:28:59.460Z,55.20
2022-09-10T04:31:29.671Z,54.80
2022-09-10T04:34:03.051Z,54.80
2022-09-10T04:36:33.186Z,54.90
2022-09-10T04:39:03.307Z,54.80
2022-09-10T04:41:33.656Z,54.70
2022-09-10T04:44:03.890Z,54.60
2022-09-10T04:46:34.414Z,54.50
2022-09-10T04:49:04.683Z,54.60
2022-09-10T04:51:35.078Z,54.30
2022-09-10T04:54:05.527Z,54.30
2022-09-10T04:56:36.449Z,54.20
2022-09-10T04:59:06.700Z,53.70
2022-09-10T05:01:36.859Z,53.70
2022-09-10T05:04:07.276Z,54.00
2022-09-10T05:06:37.402Z,53.70
2022-09-10T05:09:08.149Z,53.00
2022-09-10T05:11:38.921Z,53.40
2022-09-10T05:14:09.263Z,53.40
2022-09-10T05:16:40.286Z,53.20
2022-09-10T05:19:10.589Z,53.20
2022-09-10T05:21:40.708Z,53.10
2022-09-10T05:24:10.914Z,53.00
2022-09-10T05:26:41.683Z,53.40
2022-09-10T05:29:13.186Z,53.70
2022-09-10T05:31:43.454Z,53.70
2022-09-10T05:34:13.769Z,53.60
2022-09-10T05:36:43.938Z,53.50
2022-09-10T05:39:14.110Z,53.50
2022-09-10T05:41:46.094Z,53.40
2022-09-10T05:44:16.769Z,53.40
2022-09-10T05:46:47.447Z,53.40
2022-09-10T05:49:18.205Z,53.40
2022-09-10T05:51:48.361Z,53.40
2022-09-10T05:54:18.729Z,52.70
2022-09-10T05:56:49.013Z,52.70
2022-09-10T05:59:19.355Z,52.70
2022-09-10T06:01:50.149Z,52.50
2022-09-10T06:04:23.171Z,52.60
2022-09-10T06:06:53.339Z,52.30
2022-09-10T06:09:23.551Z,52.60
2022-09-10T06:11:53.749Z,52.50
2022-09-10T06:14:24.126Z,52.50
2022-09-10T06:16:56.394Z,52.60
2022-09-10T06:19:30.973Z,52.30
2022-09-10T06:22:01.074Z,52.10
2022-09-10T06:24:31.266Z,51.90
2022-09-10T06:27:01.354Z,51.90
2022-09-10T06:29:31.722Z,51.50
2022-09-10T06:32:02.156Z,51.40
2022-09-10T06:34:32.782Z,51.30
2022-09-10T06:37:04.212Z,51.50
2022-09-10T06:39:34.572Z,51.80
2022-09-10T06:42:04.970Z,52.30
2022-09-10T06:44:35.155Z,52.80
2022-09-10T06:47:55.437Z,52.90
2022-09-10T06:49:55.561Z,53.00
2022-09-10T06:52:26.312Z,53.00
2022-09-10T06:54:56.492Z,53.20
2022-09-10T06:57:30.294Z,53.30
2022-09-10T07:00:00.420Z,53.30
2022-09-10T07:02:32.595Z,54.00
2022-09-10T07:05:02.800Z,53.40
2022-09-10T07:07:33.022Z,53.60
2022-09-10T07:10:03.166Z,53.60
2022-09-10T07:12:34.647Z,53.60
2022-09-10T07:15:04.824Z,54.20
2022-09-10T07:17:37.938Z,54.30
2022-09-10T07:20:08.616Z,54.80
2022-09-10T07:22:39.547Z,55.20
2022-09-10T07:25:10.268Z,55.60
2022-09-10T07:27:40.564Z,56.00
2022-09-10T07:30:11.122Z,56.40
2022-09-10T07:32:42.181Z,56.50
2022-09-10T07:35:12.811Z,56.80
2022-09-10T07:37:43.287Z,57.10
2022-09-10T07:40:14.116Z,57.20
2022-09-10T07:42:46.065Z,57.40
2022-09-10T07:45:18.002Z,58.10
2022-09-10T07:47:49.269Z,57.70
2022-09-10T07:50:20.801Z,57.80
2022-09-10T07:52:51.125Z,57.90
2022-09-10T07:55:21.423Z,58.00
2022-09-10T07:57:51.537Z,58.10
2022-09-10T08:00:21.722Z,58.20
2022-09-10T08:02:52.205Z,58.30
2022-09-10T08:05:22.475Z,58.40
2022-09-10T08:07:58.787Z,58.40
2022-09-10T08:10:28.919Z,58.60
2022-09-10T08:13:00.528Z,58.60
2022-09-10T08:15:30.651Z,58.60
2022-09-10T08:18:02.353Z,58.60
2022-09-10T08:20:32.572Z,58.60
2022-09-10T08:23:03.934Z,58.70
2022-09-10T08:25:35.197Z,58.80
2022-09-10T08:28:05.529Z,58.90
2022-09-10T08:30:35.718Z,58.90
2022-09-10T08:33:05.845Z,58.90
2022-09-10T08:35:36.016Z,59.00
2022-09-10T08:38:06.336Z,59.00
2022-09-10T08:40:43.248Z,58.70
2022-09-10T08:43:15.133Z,58.70
2022-09-10T08:45:50.165Z,59.00
2022-09-10T08:48:24.819Z,59.10
2022-09-10T08:51:05.818Z,59.20
2022-09-10T08:53:56.392Z,59.20
2022-09-10T08:56:27.473Z,59.20
2022-09-10T08:59:29.081Z,59.20
2022-09-10T09:02:48.831Z,59.20
2022-09-10T09:05:25.245Z,59.20
2022-09-10T09:07:56.879Z,59.00
2022-09-10T09:11:24.337Z,59.00
2022-09-10T09:14:18.141Z,58.90
2022-09-10T09:17:36.180Z,59.00
2022-09-10T09:20:13.761Z,58.90
2022-09-10T09:22:50.418Z,58.90
2022-09-10T09:25:29.945Z,58.90
2022-09-10T09:28:00.750Z,58.90
2022-09-10T09:30:39.702Z,58.90
2022-09-10T09:33:19.276Z,59.50
2022-09-10T09:36:00.243Z,58.80
2022-09-10T09:38:39.447Z,58.90
2022-09-10T09:41:34.752Z,58.90
2022-09-10T09:44:24.556Z,58.90
2022-09-10T09:46:54.730Z,58.90
2022-09-10T09:49:27.809Z,58.90
2022-09-10T09:51:58.202Z,58.90
2022-09-10T09:55:03.332Z,59.00
2022-09-10T09:57:23.357Z,58.90
2022-09-10T09:59:53.986Z,59.00
2022-09-10T10:02:28.202Z,59.00
2022-09-10T10:05:10.903Z,58.90
2022-09-10T10:07:41.221Z,58.90
2022-09-10T10:10:29.418Z,58.90
2022-09-10T10:12:59.742Z,58.90
2022-09-10T10:15:44.746Z,59.00
2022-09-10T10:18:35.152Z,58.90
2022-09-10T10:21:19.007Z,58.90
2022-09-10T10:23:50.526Z,59.00
2022-09-10T10:26:20.746Z,59.10
2022-09-10T10:29:00.749Z,59.10
2022-09-10T10:31:43.449Z,59.00
2022-09-10T10:34:16.805Z,59.00
2022-09-10T10:37:23.725Z,59.00
2022-09-10T10:40:02.887Z,59.00
2022-09-10T10:42:55.785Z,59.10
2022-09-10T10:45:35.557Z,59.20
2022-09-10T10:48:24.159Z,59.10
2022-09-10T10:51:19.808Z,59.10
2022-09-10T10:54:05.071Z,59.10
2022-09-10T10:56:44.227Z,59.10
2022-09-10T10:59:32.242Z,59.10
2022-09-10T11:02:17.015Z,59.10
2022-09-10T11:04:54.277Z,59.10
2022-09-10T11:07:42.362Z,59.20
2022-09-10T11:10:32.304Z,59.20
2022-09-10T11:13:35.899Z,59.20
2022-09-10T11:16:16.728Z,59.20
2022-09-10T11:19:00.867Z,59.30
2022-09-10T11:21:39.853Z,59.30
2022-09-10T11:24:20.582Z,59.30
2022-09-10T11:27:01.509Z,59.30
2022-09-10T11:30:09.781Z,59.30
2022-09-10T11:33:00.736Z,59.30
2022-09-10T11:36:11.988Z,59.30
2022-09-10T11:39:05.351Z,59.30
2022-09-10T11:41:37.933Z,59.20
2022-09-10T11:44:26.150Z,59.40
2022-09-10T11:47:09.054Z,59.30
2022-09-10T11:49:59.853Z,59.30
2022-09-10T11:52:32.557Z,60.00
2022-09-10T11:55:05.231Z,59.40
2022-09-10T11:57:59.543Z,59.40
2022-09-10T12:00:33.150Z,59.30
2022-09-10T12:03:32.534Z,59.40
2022-09-10T12:06:11.548Z,59.40
2022-09-10T12:09:31.046Z,59.40
2022-09-10T12:12:33.639Z,59.30
2022-09-10T12:15:04.012Z,59.40
2022-09-10T12:17:41.688Z,59.50
2022-09-10T12:20:22.179Z,59.50
2022-09-10T12:22:57.186Z,59.50
2022-09-10T12:25:34.626Z,59.50
2022-09-10T12:28:09.219Z,59.50
2022-09-10T12:30:39.345Z,59.50
2022-09-10T12:33:15.488Z,59.50
2022-09-10T12:35:51.294Z,59.40
2022-09-10T12:39:18.151Z,59.50
2022-09-10T12:41:48.196Z,59.30
2022-09-10T12:44:36.059Z,59.60
2022-09-10T12:47:18.204Z,59.50
2022-09-10T12:50:05.588Z,59.50
2022-09-10T12:52:38.763Z,59.50
2022-09-10T12:55:15.149Z,59.50
2022-09-10T12:58:18.077Z,59.50
2022-09-10T13:00:59.882Z,59.50
2022-09-10T13:03:32.952Z,59.60
2022-09-10T13:06:06.679Z,59.60
2022-09-10T13:08:43.583Z,59.60
2022-09-10T13:11:27.175Z,59.60
2022-09-10T13:14:07.658Z,59.60
2022-09-10T13:16:38.636Z,59.60
2022-09-10T13:19:21.105Z,59.60
2022-09-10T13:21:53.274Z,59.60
2022-09-10T13:24:40.268Z,59.60
2022-09-10T13:27:19.148Z,59.60
2022-09-10T13:30:33.334Z,59.60
2022-09-10T13:33:12.806Z,59.60
2022-09-10T13:36:00.899Z,59.70
2022-09-10T13:38:31.548Z,59.60
2022-09-10T13:41:20.495Z,59.80
2022-09-10T13:44:10.659Z,59.60
2022-09-10T13:47:05.982Z,59.80
2022-09-10T13:49:52.012Z,59.80
2022-09-10T13:52:30.662Z,59.70
2022-09-10T13:55:03.516Z,59.80
2022-09-10T13:57:44.350Z,59.80
2022-09-10T14:00:20.601Z,59.80
2022-09-10T14:02:52.429Z,59.70
2022-09-10T14:05:46.444Z,59.80
2022-09-10T14:08:28.300Z,59.80
2022-09-10T14:11:04.119Z,59.80
2022-09-10T14:13:41.763Z,59.80
2022-09-10T14:16:15.664Z,59.80
2022-09-10T14:18:50.326Z,59.80
2022-09-10T14:21:28.487Z,59.80
2022-09-10T14:24:00.981Z,59.80
2022-09-10T14:26:35.161Z,59.80
2022-09-10T14:29:28.191Z,59.80
2022-09-10T14:31:58.361Z,59.80
2022-09-10T14:34:40.176Z,59.90
2022-09-10T14:37:40.570Z,59.80
2022-09-10T14:40:28.991Z,59.80
2022-09-10T14:43:17.016Z,59.80
2022-09-10T14:45:49.511Z,59.90
2022-09-10T14:49:00.879Z,59.90
2022-09-10T14:51:31.231Z,59.80
2022-09-10T14:54:01.912Z,60.00
2022-09-10T14:56:47.854Z,60.00
2022-09-10T14:59:34.689Z,59.90
2022-09-10T15:02:18.335Z,59.90
2022-09-10T15:04:48.471Z,60.00
2022-09-10T15:07:18.985Z,59.90
2022-09-10T15:09:49.744Z,60.00
2022-09-10T15:12:31.520Z,59.90
2022-09-10T15:15:02.112Z,59.90
2022-09-10T15:17:32.506Z,59.90
2022-09-10T15:20:05.172Z,60.00
2022-09-10T15:22:35.433Z,60.00
2022-09-10T15:25:10.222Z,60.00
2022-09-10T15:27:41.769Z,60.00
2022-09-10T15:30:12.484Z,60.00
2022-09-10T15:32:43.834Z,60.00
2022-09-10T15:35:14.504Z,60.10
2022-09-10T15:37:44.693Z,60.10
2022-09-10T15:40:14.998Z,60.10
2022-09-10T15:42:45.241Z,60.10
2022-09-10T15:45:15.563Z,60.10
2022-09-10T15:47:46.342Z,60.10
2022-09-10T15:50:17.951Z,60.10
2022-09-10T15:52:48.209Z,60.10
2022-09-10T15:55:21.254Z,60.50
2022-09-10T15:57:54.788Z,60.10
2022-09-10T16:00:25.064Z,60.10
2022-09-10T16:02:55.912Z,60.10
2022-09-10T16:05:26.102Z,60.10
2022-09-10T16:07:56.397Z,60.20
2022-09-10T16:10:26.942Z,60.20
2022-09-10T16:12:57.087Z,60.20
2022-09-10T16:15:27.980Z,60.20
2022-09-10T16:17:59.740Z,60.20
2022-09-10T16:20:29.905Z,60.20
2022-09-10T16:23:01.139Z,60.60
2022-09-10T16:25:32.562Z,60.20
2022-09-10T16:28:03.846Z,60.20
2022-09-10T16:30:34.055Z,60.20
2022-09-10T16:33:04.311Z,60.30
2022-09-10T16:35:37.695Z,60.20
2022-09-10T16:38:08.094Z,60.30
2022-09-10T16:40:38.579Z,60.30
2022-09-10T16:43:09.288Z,60.30
2022-09-10T16:45:39.573Z,60.30
2022-09-10T16:48:09.999Z,60.30
2022-09-10T16:50:40.229Z,60.30
2022-09-10T16:53:12.105Z,60.30
2022-09-10T16:55:43.292Z,60.40
2022-09-10T16:58:14.157Z,60.40
2022-09-10T17:00:46.167Z,60.40
2022-09-10T17:03:17.179Z,60.30
2022-09-10T17:05:51.216Z,60.30
2022-09-10T17:08:31.404Z,60.40
2022-09-10T17:11:01.543Z,60.30
2022-09-10T17:13:32.140Z,60.40
2022-09-10T17:16:24.617Z,60.50
2022-09-10T17:19:02.493Z,60.30
2022-09-10T17:21:36.174Z,60.40
2022-09-10T17:24:09.845Z,60.40
2022-09-10T17:26:41.329Z,60.50
2022-09-10T17:29:14.602Z,60.50
2022-09-10T17:31:46.119Z,60.50
2022-09-10T17:34:17.832Z,60.50
2022-09-10T17:36:49.669Z,60.50
2022-09-10T17:39:20.952Z,60.40
2022-09-10T17:41:52.138Z,60.50
2022-09-10T17:44:22.265Z,60.50
2022-09-10T17:46:52.450Z,60.50
2022-09-10T17:49:22.638Z,60.60
2022-09-10T17:51:53.560Z,60.60
2022-09-10T17:54:25.048Z,60.50
2022-09-10T17:56:55.227Z,60.50
2022-09-10T17:59:26.937Z,60.50
2022-09-10T18:01:59.650Z,60.50
2022-09-10T18:04:29.955Z,60.60
2022-09-10T18:07:00.179Z,60.60
2022-09-10T18:09:30.508Z,61.30
2022-09-10T18:12:02.404Z,60.60
2022-09-10T18:14:32.797Z,60.50
2022-09-10T18:17:02.927Z,60.60
2022-09-10T18:19:34.782Z,60.60
2022-09-10T18:22:05.076Z,60.70
2022-09-10T18:24:35.352Z,60.60
2022-09-10T18:27:06.949Z,60.60
2022-09-10T18:29:37.192Z,60.60
2022-09-10T18:32:08.982Z,60.60
2022-09-10T18:34:42.202Z,61.40
2022-09-10T18:37:12.356Z,60.60
2022-09-10T18:39:42.692Z,60.70
2022-09-10T18:42:12.864Z,60.70
2022-09-10T18:44:43.005Z,60.70
2022-09-10T18:47:34.080Z,60.70
2022-09-10T18:50:03.752Z,60.60
2022-09-10T18:52:34.228Z,60.70
2022-09-10T18:55:04.391Z,60.70
2022-09-10T18:57:34.715Z,60.70
2022-09-10T19:00:05.011Z,60.70
2022-09-10T19:02:35.299Z,60.70
2022-09-10T19:05:11.578Z,60.70
2022-09-10T19:07:42.312Z,60.70
2022-09-10T19:10:12.495Z,60.70
2022-09-10T19:12:42.894Z,60.80
2022-09-10T19:15:13.326Z,60.70
2022-09-10T19:17:43.489Z,60.70
2022-09-10T19:20:13.776Z,60.70
2022-09-10T19:22:44.551Z,60.80
2022-09-10T19:25:14.760Z,60.80
2022-09-10T19:27:46.941Z,60.80
2022-09-10T19:30:17.141Z,60.80
2022-09-10T19:32:47.577Z,60.80
2022-09-10T19:35:17.856Z,60.90
2022-09-10T19:37:49.934Z,60.90
2022-09-10T19:40:20.018Z,60.90
2022-09-10T19:42:50.206Z,60.90
2022-09-10T19:45:20.285Z,60.80
2022-09-10T19:47:50.445Z,60.80
2022-09-10T19:50:23.344Z,60.90
2022-09-10T19:52:55.543Z,60.90
2022-09-10T19:55:27.230Z,60.90
2022-09-10T19:57:57.741Z,60.90
2022-09-10T20:00:45.972Z,61.00
2022-09-10T20:03:17.764Z,60.90
2022-09-10T20:05:47.911Z,61.00
2022-09-10T20:08:18.100Z,61.00
2022-09-10T20:10:57.250Z,61.00
2022-09-10T20:13:29.172Z,60.90
2022-09-10T20:16:08.612Z,61.00
2022-09-10T20:18:39.960Z,61.00
2022-09-10T20:21:24.279Z,61.00
2022-09-10T20:23:57.504Z,60.90
2022-09-10T20:26:27.891Z,61.10
2022-09-10T20:29:01.237Z,61.10
2022-09-10T20:31:33.660Z,61.00
2022-09-10T20:34:06.298Z,61.10
2022-09-10T20:36:39.765Z,61.10
2022-09-10T20:39:10.296Z,61.10
2022-09-10T20:41:41.576Z,61.10
2022-09-10T20:44:14.635Z,61.10
2022-09-10T20:46:45.490Z,61.10
2022-09-10T20:49:17.969Z,61.10
2022-09-10T20:51:48.300Z,61.10
2022-09-10T20:54:21.868Z,61.00
2022-09-10T20:56:52.072Z,61.10
2022-09-10T20:59:26.846Z,61.00
2022-09-10T21:01:58.294Z,61.00
2022-09-10T21:04:28.673Z,61.10
2022-09-10T21:06:58.790Z,61.10
2022-09-10T21:09:29.017Z,61.10
2022-09-10T21:11:59.336Z,61.00
2022-09-10T21:14:29.539Z,61.10
2022-09-10T21:16:59.601Z,61.00
2022-09-10T21:19:29.797Z,61.00
2022-09-10T21:21:59.962Z,61.00
2022-09-10T21:24:30.113Z,61.00
2022-09-10T21:27:01.207Z,61.00
2022-09-10T21:29:31.459Z,61.00
2022-09-10T21:32:02.109Z,61.00
2022-09-10T21:34:34.039Z,61.00
2022-09-10T21:37:04.333Z,61.00
2022-09-10T21:39:35.033Z,61.00
2022-09-10T21:42:06.015Z,61.00
2022-09-10T21:44:36.270Z,61.00
2022-09-10T21:47:06.903Z,61.00
2022-09-10T21:49:37.010Z,61.00
2022-09-10T21:52:07.552Z,61.00
2022-09-10T21:54:38.247Z,61.00
2022-09-10T21:57:12.618Z,60.90
2022-09-10T21:59:43.237Z,61.00
2022-09-10T22:02:13.735Z,61.00
2022-09-10T22:04:44.274Z,61.00
2022-09-10T22:07:15.828Z,61.00
2022-09-10T22:09:46.005Z,61.00
2022-09-10T22:12:18.251Z,61.00
2022-09-10T22:14:48.415Z,61.00
2022-09-10T22:17:19.443Z,61.00
2022-09-10T22:19:49.524Z,60.90
2022-09-10T22:22:19.716Z,60.90
2022-09-10T22:24:51.154Z,61.00
2022-09-10T22:27:22.221Z,60.90
2022-09-10T22:29:53.121Z,60.90
2022-09-10T22:32:23.441Z,60.80
2022-09-10T22:34:53.566Z,60.90
2022-09-10T22:37:23.768Z,60.80
2022-09-10T22:39:54.386Z,60.80
2022-09-10T22:42:24.683Z,60.90
2022-09-10T22:44:55.093Z,60.80
2022-09-10T22:47:25.337Z,60.80
2022-09-10T22:49:55.528Z,60.80
2022-09-10T22:52:25.782Z,60.70
2022-09-10T22:54:56.069Z,60.70
2022-09-10T22:57:26.253Z,60.70
2022-09-10T22:59:57.028Z,60.70
2022-09-10T23:02:27.242Z,60.70
2022-09-10T23:04:57.439Z,60.70
2022-09-10T23:07:27.804Z,60.70
2022-09-10T23:09:57.871Z,60.70
2022-09-10T23:12:28.127Z,60.70
2022-09-10T23:14:58.819Z,60.70
2022-09-10T23:17:29.284Z,60.70
2022-09-10T23:19:59.418Z,60.70
2022-09-10T23:22:29.651Z,60.60
2022-09-10T23:24:59.949Z,60.70
2022-09-10T23:27:30.464Z,60.70
2022-09-10T23:30:00.705Z,60.60
2022-09-10T23:32:30.897Z,60.60
2022-09-10T23:35:02.039Z,60.60
2022-09-10T23:37:32.318Z,60.70
2022-09-10T23:40:02.456Z,60.60
2022-09-10T23:42:32.972Z,60.60
2022-09-10T23:45:03.120Z,60.60
2022-09-10T23:47:33.208Z,60.50
2022-09-10T23:50:03.342Z,60.50
2022-09-10T23:52:33.482Z,60.60
2022-09-10T23:55:03.671Z,60.40
2022-09-10T23:57:33.809Z,59.60
